sensor_id;sensor_type;location;lat;lon;timestamp;P1;durP1;ratioP1;P2;durP2;ratioP2
23682;SDS011;24897;53.514;10.482;2022-10-15T00:00:46;37.93;;;33.70;;
23682;SDS011;24897;53.514;10.482;2022-10-15T00:03:30;41.03;;;35.13;;
23682;SDS011;24897;53.514;10.482;2022-10-15T00:06:16;44.47;;;35.70;;
23682;SDS011;24897;53.514;10.482;2022-10-15T00:09:02;42.33;;;36.67;;
23682;SDS011;24897;53.514;10.482;2022-10-15T00:11:47;39.20;;;32.40;;
23682;SDS011;24897;53.514;10.482;2022-10-15T00:14:31;43.40;;;35.67;;
23682;SDS011;24897;53.514;10.482;2022-10-15T00:17:15;40.03;;;34.03;;
23682;SDS011;24897;53.514;10.482;2022-10-15T00:20:01;37.10;;;31.17;;
23682;SDS011;24897;53.514;10.482;2022-10-15T00:22:50;39.23;;;33.20;;
23682;SDS011;24897;53.514;10.482;2022-10-15T00:25:34;44.07;;;37.43;;
23682;SDS011;24897;53.514;10.482;2022-10-15T00:28:18;41.60;;;35.73;;
23682;SDS011;24897;53.514;10.482;2022-10-15T00:31:04;42.77;;;36.90;;
23682;SDS011;24897;53.514;10.482;2022-10-15T00:33:50;44.57;;;37.17;;
23682;SDS011;24897;53.514;10.482;2022-10-15T00:36:35;46.03;;;37.53;;
23682;SDS011;24897;53.514;10.482;2022-10-15T00:39:20;46.80;;;37.67;;
23682;SDS011;24897;53.514;10.482;2022-10-15T00:42:04;47.63;;;36.17;;
23682;SDS011;24897;53.514;10.482;2022-10-15T00:44:50;42.30;;;37.20;;
23682;SDS011;24897;53.514;10.482;2022-10-15T00:47:38;41.80;;;35.03;;
23682;SDS011;24897;53.514;10.482;2022-10-15T00:50:24;46.60;;;37.90;;
23682;SDS011;24897;53.514;10.482;2022-10-15T00:53:10;45.97;;;38.07;;
23682;SDS011;24897;53.514;10.482;2022-10-15T00:55:54;45.53;;;37.87;;
23682;SDS011;24897;53.514;10.482;2022-10-15T00:58:39;46.77;;;38.67;;
23682;SDS011;24897;53.514;10.482;2022-10-15T01:01:23;43.73;;;37.40;;
23682;SDS011;24897;53.514;10.482;2022-10-15T01:04:10;50.00;;;38.77;;
23682;SDS011;24897;53.514;10.482;2022-10-15T01:06:55;43.87;;;36.20;;
23682;SDS011;24897;53.514;10.482;2022-10-15T01:09:39;50.27;;;38.27;;
23682;SDS011;24897;53.514;10.482;2022-10-15T01:21:42;55.40;;;41.97;;
23682;SDS011;24897;53.514;10.482;2022-10-15T01:27:33;49.50;;;38.30;;
23682;SDS011;24897;53.514;10.482;2022-10-15T01:33:19;52.23;;;41.27;;
23682;SDS011;24897;53.514;10.482;2022-10-15T01:36:30;52.80;;;41.73;;
23682;SDS011;24897;53.514;10.482;2022-10-15T01:39:23;49.17;;;40.10;;
23682;SDS011;24897;53.514;10.482;2022-10-15T01:42:32;57.07;;;43.10;;
23682;SDS011;24897;53.514;10.482;2022-10-15T01:45:22;54.60;;;40.80;;
23682;SDS011;24897;53.514;10.482;2022-10-15T01:48:12;54.20;;;42.67;;
23682;SDS011;24897;53.514;10.482;2022-10-15T01:50:58;51.93;;;40.03;;
23682;SDS011;24897;53.514;10.482;2022-10-15T01:53:45;52.17;;;39.20;;
23682;SDS011;24897;53.514;10.482;2022-10-15T01:56:32;47.93;;;38.53;;
23682;SDS011;24897;53.514;10.482;2022-10-15T01:59:20;55.50;;;41.80;;
23682;SDS011;24897;53.514;10.482;2022-10-15T02:02:07;59.93;;;43.87;;
23682;SDS011;24897;53.514;10.482;2022-10-15T02:04:51;52.30;;;42.20;;
23682;SDS011;24897;53.514;10.482;2022-10-15T02:11:04;60.87;;;43.80;;
23682;SDS011;24897;53.514;10.482;2022-10-15T02:13:59;61.03;;;47.17;;
23682;SDS011;24897;53.514;10.482;2022-10-15T02:17:31;60.00;;;43.87;;
23682;SDS011;24897;53.514;10.482;2022-10-15T02:20:15;65.57;;;46.80;;
23682;SDS011;24897;53.514;10.482;2022-10-15T02:23:25;59.10;;;42.60;;
23682;SDS011;24897;53.514;10.482;2022-10-15T02:26:26;60.30;;;44.63;;
23682;SDS011;24897;53.514;10.482;2022-10-15T02:29:13;64.33;;;44.23;;
23682;SDS011;24897;53.514;10.482;2022-10-15T02:32:03;67.80;;;46.83;;
23682;SDS011;24897;53.514;10.482;2022-10-15T02:34:49;63.67;;;45.47;;
23682;SDS011;24897;53.514;10.482;2022-10-15T02:37:35;67.57;;;46.53;;
23682;SDS011;24897;53.514;10.482;2022-10-15T02:40:21;66.13;;;44.83;;
23682;SDS011;24897;53.514;10.482;2022-10-15T02:43:10;67.50;;;48.07;;
23682;SDS011;24897;53.514;10.482;2022-10-15T02:45:57;63.50;;;45.30;;
23682;SDS011;24897;53.514;10.482;2022-10-15T02:48:42;61.80;;;43.97;;
23682;SDS011;24897;53.514;10.482;2022-10-15T02:51:26;62.70;;;46.23;;
23682;SDS011;24897;53.514;10.482;2022-10-15T02:54:13;62.90;;;44.17;;
23682;SDS011;24897;53.514;10.482;2022-10-15T02:56:58;57.63;;;42.87;;
23682;SDS011;24897;53.514;10.482;2022-10-15T02:59:42;63.30;;;45.03;;
23682;SDS011;24897;53.514;10.482;2022-10-15T03:02:27;64.70;;;46.47;;
23682;SDS011;24897;53.514;10.482;2022-10-15T03:05:11;66.07;;;46.53;;
23682;SDS011;24897;53.514;10.482;2022-10-15T03:07:55;67.10;;;47.17;;
23682;SDS011;24897;53.514;10.482;2022-10-15T03:10:41;72.63;;;51.87;;
23682;SDS011;24897;53.514;10.482;2022-10-15T03:13:25;67.70;;;48.27;;
23682;SDS011;24897;53.514;10.482;2022-10-15T03:16:10;67.57;;;48.20;;
23682;SDS011;24897;53.514;10.482;2022-10-15T03:18:55;67.47;;;48.20;;
23682;SDS011;24897;53.514;10.482;2022-10-15T03:21:39;66.93;;;47.73;;
23682;SDS011;24897;53.514;10.482;2022-10-15T03:24:23;69.57;;;49.33;;
23682;SDS011;24897;53.514;10.482;2022-10-15T03:27:07;65.40;;;48.43;;
23682;SDS011;24897;53.514;10.482;2022-10-15T03:29:51;66.97;;;47.63;;
23682;SDS011;24897;53.514;10.482;2022-10-15T03:32:35;66.33;;;48.90;;
23682;SDS011;24897;53.514;10.482;2022-10-15T03:35:20;64.60;;;47.07;;
23682;SDS011;24897;53.514;10.482;2022-10-15T03:38:05;65.23;;;47.57;;
23682;SDS011;24897;53.514;10.482;2022-10-15T03:40:50;64.87;;;47.00;;
23682;SDS011;24897;53.514;10.482;2022-10-15T03:43:34;68.53;;;48.23;;
23682;SDS011;24897;53.514;10.482;2022-10-15T03:46:18;65.93;;;46.20;;
23682;SDS011;24897;53.514;10.482;2022-10-15T03:49:02;68.93;;;47.20;;
23682;SDS011;24897;53.514;10.482;2022-10-15T03:51:47;70.03;;;47.20;;
23682;SDS011;24897;53.514;10.482;2022-10-15T03:54:31;65.80;;;47.30;;
23682;SDS011;24897;53.514;10.482;2022-10-15T03:57:15;68.07;;;47.13;;
23682;SDS011;24897;53.514;10.482;2022-10-15T03:59:59;68.17;;;48.43;;
23682;SDS011;24897;53.514;10.482;2022-10-15T04:02:43;70.93;;;49.37;;
23682;SDS011;24897;53.514;10.482;2022-10-15T04:05:27;72.33;;;48.43;;
23682;SDS011;24897;53.514;10.482;2022-10-15T04:08:12;71.27;;;48.30;;
23682;SDS011;24897;53.514;10.482;2022-10-15T04:10:56;74.90;;;49.20;;
23682;SDS011;24897;53.514;10.482;2022-10-15T04:13:41;66.57;;;45.87;;
23682;SDS011;24897;53.514;10.482;2022-10-15T04:16:26;73.90;;;49.10;;
23682;SDS011;24897;53.514;10.482;2022-10-15T04:19:10;70.40;;;46.97;;
23682;SDS011;24897;53.514;10.482;2022-10-15T04:21:54;62.33;;;45.17;;
23682;SDS011;24897;53.514;10.482;2022-10-15T04:24:38;66.10;;;45.60;;
23682;SDS011;24897;53.514;10.482;2022-10-15T04:27:23;65.30;;;45.70;;
23682;SDS011;24897;53.514;10.482;2022-10-15T04:30:07;69.57;;;47.60;;
23682;SDS011;24897;53.514;10.482;2022-10-15T04:32:52;66.43;;;45.50;;
23682;SDS011;24897;53.514;10.482;2022-10-15T04:35:36;72.80;;;47.37;;
23682;SDS011;24897;53.514;10.482;2022-10-15T04:38:21;65.70;;;46.50;;
23682;SDS011;24897;53.514;10.482;2022-10-15T04:41:08;70.77;;;47.13;;
23682;SDS011;24897;53.514;10.482;2022-10-15T04:43:54;74.20;;;49.13;;
23682;SDS011;24897;53.514;10.482;2022-10-15T04:46:38;69.37;;;46.97;;
23682;SDS011;24897;53.514;10.482;2022-10-15T04:49:22;68.10;;;46.53;;
23682;SDS011;24897;53.514;10.482;2022-10-15T04:52:07;70.60;;;46.43;;
23682;SDS011;24897;53.514;10.482;2022-10-15T04:54:51;70.77;;;45.57;;
23682;SDS011;24897;53.514;10.482;2022-10-15T04:57:36;68.53;;;45.87;;
23682;SDS011;24897;53.514;10.482;2022-10-15T05:00:20;67.07;;;45.90;;
23682;SDS011;24897;53.514;10.482;2022-10-15T05:03:05;74.07;;;47.27;;
23682;SDS011;24897;53.514;10.482;2022-10-15T05:05:50;72.87;;;48.23;;
23682;SDS011;24897;53.514;10.482;2022-10-15T05:08:35;77.90;;;48.20;;
23682;SDS011;24897;53.514;10.482;2022-10-15T05:11:24;74.97;;;46.93;;
23682;SDS011;24897;53.514;10.482;2022-10-15T05:14:10;69.03;;;45.93;;
23682;SDS011;24897;53.514;10.482;2022-10-15T05:16:54;67.23;;;46.07;;
23682;SDS011;24897;53.514;10.482;2022-10-15T05:19:38;71.10;;;47.23;;
23682;SDS011;24897;53.514;10.482;2022-10-15T05:22:22;81.03;;;49.73;;
23682;SDS011;24897;53.514;10.482;2022-10-15T05:25:06;73.57;;;48.13;;
23682;SDS011;24897;53.514;10.482;2022-10-15T05:27:51;67.03;;;46.03;;
23682;SDS011;24897;53.514;10.482;2022-10-15T05:30:35;72.47;;;45.93;;
23682;SDS011;24897;53.514;10.482;2022-10-15T05:33:19;77.23;;;47.63;;
23682;SDS011;24897;53.514;10.482;2022-10-15T05:36:07;68.37;;;45.40;;
23682;SDS011;24897;53.514;10.482;2022-10-15T05:38:53;74.57;;;47.33;;
23682;SDS011;24897;53.514;10.482;2022-10-15T05:41:39;71.90;;;45.77;;
23682;SDS011;24897;53.514;10.482;2022-10-15T05:44:23;72.13;;;47.40;;
23682;SDS011;24897;53.514;10.482;2022-10-15T05:47:08;73.87;;;48.80;;
23682;SDS011;24897;53.514;10.482;2022-10-15T05:49:54;74.87;;;48.50;;
23682;SDS011;24897;53.514;10.482;2022-10-15T05:52:39;78.83;;;49.83;;
23682;SDS011;24897;53.514;10.482;2022-10-15T05:55:23;70.60;;;47.10;;
23682;SDS011;24897;53.514;10.482;2022-10-15T05:58:08;66.63;;;45.23;;
23682;SDS011;24897;53.514;10.482;2022-10-15T06:00:53;78.97;;;48.20;;
23682;SDS011;24897;53.514;10.482;2022-10-15T06:03:38;68.70;;;45.47;;
23682;SDS011;24897;53.514;10.482;2022-10-15T06:06:24;79.60;;;50.10;;
23682;SDS011;24897;53.514;10.482;2022-10-15T06:09:08;79.27;;;50.10;;
23682;SDS011;24897;53.514;10.482;2022-10-15T06:11:53;77.70;;;48.67;;
23682;SDS011;24897;53.514;10.482;2022-10-15T06:14:37;79.00;;;49.73;;
23682;SDS011;24897;53.514;10.482;2022-10-15T06:17:21;77.20;;;49.43;;
23682;SDS011;24897;53.514;10.482;2022-10-15T06:20:05;75.97;;;49.67;;
23682;SDS011;24897;53.514;10.482;2022-10-15T06:22:50;67.63;;;47.10;;
23682;SDS011;24897;53.514;10.482;2022-10-15T06:25:34;68.77;;;47.37;;
23682;SDS011;24897;53.514;10.482;2022-10-15T06:28:18;73.37;;;47.67;;
23682;SDS011;24897;53.514;10.482;2022-10-15T06:31:02;69.97;;;46.53;;
23682;SDS011;24897;53.514;10.482;2022-10-15T06:33:47;70.87;;;46.07;;
23682;SDS011;24897;53.514;10.482;2022-10-15T06:36:31;70.40;;;45.47;;
23682;SDS011;24897;53.514;10.482;2022-10-15T06:39:15;71.50;;;47.33;;
23682;SDS011;24897;53.514;10.482;2022-10-15T06:42:00;73.13;;;47.10;;
23682;SDS011;24897;53.514;10.482;2022-10-15T06:44:44;71.33;;;46.90;;
23682;SDS011;24897;53.514;10.482;2022-10-15T06:47:28;63.53;;;42.60;;
23682;SDS011;24897;53.514;10.482;2022-10-15T06:50:13;71.80;;;46.67;;
23682;SDS011;24897;53.514;10.482;2022-10-15T06:52:57;62.10;;;43.27;;
23682;SDS011;24897;53.514;10.482;2022-10-15T06:55:41;67.17;;;45.87;;
23682;SDS011;24897;53.514;10.482;2022-10-15T06:58:26;68.50;;;45.87;;
23682;SDS011;24897;53.514;10.482;2022-10-15T07:01:11;63.77;;;43.93;;
23682;SDS011;24897;53.514;10.482;2022-10-15T07:03:55;66.57;;;45.07;;
23682;SDS011;24897;53.514;10.482;2022-10-15T07:06:39;66.07;;;45.23;;
23682;SDS011;24897;53.514;10.482;2022-10-15T07:09:24;65.83;;;44.80;;
23682;SDS011;24897;53.514;10.482;2022-10-15T07:12:09;62.90;;;43.57;;
23682;SDS011;24897;53.514;10.482;2022-10-15T07:14:53;61.50;;;43.47;;
23682;SDS011;24897;53.514;10.482;2022-10-15T07:17:37;59.20;;;42.47;;
23682;SDS011;24897;53.514;10.482;2022-10-15T07:20:22;66.10;;;42.20;;
23682;SDS011;24897;53.514;10.482;2022-10-15T07:23:06;56.20;;;40.10;;
23682;SDS011;24897;53.514;10.482;2022-10-15T07:25:51;59.23;;;41.70;;
23682;SDS011;24897;53.514;10.482;2022-10-15T07:28:35;62.47;;;42.17;;
23682;SDS011;24897;53.514;10.482;2022-10-15T07:31:20;55.53;;;38.00;;
23682;SDS011;24897;53.514;10.482;2022-10-15T07:34:04;62.20;;;41.90;;
23682;SDS011;24897;53.514;10.482;2022-10-15T07:36:49;66.60;;;43.70;;
23682;SDS011;24897;53.514;10.482;2022-10-15T07:39:33;61.20;;;41.70;;
23682;SDS011;24897;53.514;10.482;2022-10-15T07:42:17;68.40;;;43.67;;
23682;SDS011;24897;53.514;10.482;2022-10-15T07:45:01;65.30;;;43.80;;
23682;SDS011;24897;53.514;10.482;2022-10-15T07:47:46;65.87;;;47.33;;
23682;SDS011;24897;53.514;10.482;2022-10-15T07:50:30;59.03;;;42.17;;
23682;SDS011;24897;53.514;10.482;2022-10-15T07:53:14;60.60;;;42.80;;
23682;SDS011;24897;53.514;10.482;2022-10-15T07:56:00;56.80;;;42.07;;
23682;SDS011;24897;53.514;10.482;2022-10-15T07:58:51;63.53;;;45.13;;
23682;SDS011;24897;53.514;10.482;2022-10-15T08:01:35;53.40;;;39.50;;
23682;SDS011;24897;53.514;10.482;2022-10-15T08:04:20;53.30;;;40.00;;
23682;SDS011;24897;53.514;10.482;2022-10-15T08:07:04;58.83;;;41.43;;
23682;SDS011;24897;53.514;10.482;2022-10-15T08:09:48;53.77;;;39.53;;
23682;SDS011;24897;53.514;10.482;2022-10-15T08:12:33;55.17;;;41.47;;
23682;SDS011;24897;53.514;10.482;2022-10-15T08:15:17;56.23;;;41.67;;
23682;SDS011;24897;53.514;10.482;2022-10-15T08:18:01;57.80;;;44.17;;
23682;SDS011;24897;53.514;10.482;2022-10-15T08:20:46;58.43;;;42.40;;
23682;SDS011;24897;53.514;10.482;2022-10-15T08:23:31;58.47;;;42.60;;
23682;SDS011;24897;53.514;10.482;2022-10-15T08:26:15;58.90;;;43.87;;
23682;SDS011;24897;53.514;10.482;2022-10-15T08:28:59;53.10;;;41.23;;
23682;SDS011;24897;53.514;10.482;2022-10-15T08:31:44;53.47;;;42.83;;
23682;SDS011;24897;53.514;10.482;2022-10-15T08:34:28;55.80;;;43.23;;
23682;SDS011;24897;53.514;10.482;2022-10-15T08:37:13;56.17;;;43.30;;
23682;SDS011;24897;53.514;10.482;2022-10-15T08:39:57;52.20;;;41.23;;
23682;SDS011;24897;53.514;10.482;2022-10-15T08:42:42;52.87;;;43.40;;
23682;SDS011;24897;53.514;10.482;2022-10-15T08:45:37;51.80;;;42.00;;
23682;SDS011;24897;53.514;10.482;2022-10-15T08:48:32;52.43;;;41.30;;
23682;SDS011;24897;53.514;10.482;2022-10-15T08:51:21;45.07;;;37.40;;
23682;SDS011;24897;53.514;10.482;2022-10-15T08:54:08;44.80;;;39.13;;
23682;SDS011;24897;53.514;10.482;2022-10-15T08:57:06;45.27;;;37.80;;
23682;SDS011;24897;53.514;10.482;2022-10-15T09:00:21;45.53;;;38.33;;
23682;SDS011;24897;53.514;10.482;2022-10-15T09:06:14;45.10;;;38.87;;
23682;SDS011;24897;53.514;10.482;2022-10-15T09:14:56;43.63;;;38.50;;
23682;SDS011;24897;53.514;10.482;2022-10-15T09:17:43;47.97;;;41.93;;
23682;SDS011;24897;53.514;10.482;2022-10-15T09:20:32;40.77;;;36.47;;
23682;SDS011;24897;53.514;10.482;2022-10-15T09:23:23;39.53;;;34.70;;
23682;SDS011;24897;53.514;10.482;2022-10-15T09:26:21;37.30;;;32.70;;
23682;SDS011;24897;53.514;10.482;2022-10-15T09:29:14;35.53;;;30.63;;
23682;SDS011;24897;53.514;10.482;2022-10-15T09:32:04;33.20;;;28.83;;
23682;SDS011;24897;53.514;10.482;2022-10-15T09:34:58;34.70;;;29.80;;
23682;SDS011;24897;53.514;10.482;2022-10-15T09:44:27;31.00;;;24.83;;
23682;SDS011;24897;53.514;10.482;2022-10-15T09:47:23;30.30;;;24.77;;
23682;SDS011;24897;53.514;10.482;2022-10-15T09:50:13;29.40;;;26.30;;
23682;SDS011;24897;53.514;10.482;2022-10-15T09:53:17;30.77;;;27.10;;
23682;SDS011;24897;53.514;10.482;2022-10-15T09:56:25;29.53;;;25.83;;
23682;SDS011;24897;53.514;10.482;2022-10-15T10:03:05;28.87;;;25.77;;
23682;SDS011;24897;53.514;10.482;2022-10-15T10:06:03;29.70;;;25.73;;
23682;SDS011;24897;53.514;10.482;2022-10-15T10:12:02;30.57;;;27.37;;
23682;SDS011;24897;53.514;10.482;2022-10-15T10:14:55;33.90;;;28.53;;
23682;SDS011;24897;53.514;10.482;2022-10-15T10:17:42;30.50;;;27.30;;
23682;SDS011;24897;53.514;10.482;2022-10-15T10:20:36;32.90;;;29.50;;
23682;SDS011;24897;53.514;10.482;2022-10-15T10:23:42;33.87;;;30.23;;
23682;SDS011;24897;53.514;10.482;2022-10-15T10:26:26;32.20;;;28.87;;
23682;SDS011;24897;53.514;10.482;2022-10-15T10:29:12;29.03;;;26.03;;
23682;SDS011;24897;53.514;10.482;2022-10-15T10:32:18;29.33;;;25.20;;
23682;SDS011;24897;53.514;10.482;2022-10-15T10:35:04;27.10;;;24.40;;
23682;SDS011;24897;53.514;10.482;2022-10-15T10:37:48;28.03;;;24.13;;
23682;SDS011;24897;53.514;10.482;2022-10-15T10:40:34;29.83;;;26.80;;
23682;SDS011;24897;53.514;10.482;2022-10-15T10:43:22;29.37;;;26.47;;
23682;SDS011;24897;53.514;10.482;2022-10-15T10:48:57;26.27;;;23.80;;
23682;SDS011;24897;53.514;10.482;2022-10-15T10:51:47;26.30;;;23.63;;
23682;SDS011;24897;53.514;10.482;2022-10-15T10:54:32;25.23;;;22.93;;
23682;SDS011;24897;53.514;10.482;2022-10-15T10:57:17;26.37;;;23.17;;
23682;SDS011;24897;53.514;10.482;2022-10-15T11:00:23;28.60;;;23.17;;
23682;SDS011;24897;53.514;10.482;2022-10-15T11:03:14;24.80;;;22.43;;
23682;SDS011;24897;53.514;10.482;2022-10-15T11:06:26;25.27;;;22.73;;
23682;SDS011;24897;53.514;10.482;2022-10-15T11:15:44;24.37;;;22.07;;
23682;SDS011;24897;53.514;10.482;2022-10-15T11:18:47;24.70;;;22.40;;
23682;SDS011;24897;53.514;10.482;2022-10-15T11:21:54;26.53;;;23.90;;
23682;SDS011;24897;53.514;10.482;2022-10-15T11:37:43;24.50;;;21.97;;
23682;SDS011;24897;53.514;10.482;2022-10-15T11:40:55;23.77;;;21.47;;
23682;SDS011;24897;53.514;10.482;2022-10-15T11:47:13;25.70;;;22.73;;
23682;SDS011;24897;53.514;10.482;2022-10-15T11:56:10;22.53;;;20.53;;
23682;SDS011;24897;53.514;10.482;2022-10-15T11:58:57;21.30;;;19.30;;
23682;SDS011;24897;53.514;10.482;2022-10-15T12:01:53;22.57;;;20.57;;
23682;SDS011;24897;53.514;10.482;2022-10-15T12:05:27;21.37;;;19.13;;
23682;SDS011;24897;53.514;10.482;2022-10-15T12:08:10;21.83;;;19.93;;
23682;SDS011;24897;53.514;10.482;2022-10-15T12:11:58;21.73;;;19.70;;
23682;SDS011;24897;53.514;10.482;2022-10-15T12:14:19;22.07;;;19.87;;
23682;SDS011;24897;53.514;10.482;2022-10-15T12:17:19;19.63;;;17.97;;
23682;SDS011;24897;53.514;10.482;2022-10-15T12:20:24;21.03;;;18.77;;
23682;SDS011;24897;53.514;10.482;2022-10-15T12:23:23;19.50;;;17.73;;
23682;SDS011;24897;53.514;10.482;2022-10-15T12:29:17;19.40;;;17.70;;
23682;SDS011;24897;53.514;10.482;2022-10-15T12:32:19;20.13;;;18.20;;
23682;SDS011;24897;53.514;10.482;2022-10-15T12:38:08;19.40;;;17.60;;
23682;SDS011;24897;53.514;10.482;2022-10-15T12:41:13;18.77;;;16.87;;
23682;SDS011;24897;53.514;10.482;2022-10-15T12:44:11;19.20;;;17.60;;
23682;SDS011;24897;53.514;10.482;2022-10-15T12:47:02;19.77;;;18.00;;
23682;SDS011;24897;53.514;10.482;2022-10-15T12:49:55;37.17;;;33.27;;
23682;SDS011;24897;53.514;10.482;2022-10-15T12:55:58;19.10;;;17.40;;
23682;SDS011;24897;53.514;10.482;2022-10-15T12:59:00;18.27;;;16.47;;
23682;SDS011;24897;53.514;10.482;2022-10-15T13:04:36;17.80;;;16.40;;
23682;SDS011;24897;53.514;10.482;2022-10-15T13:07:21;18.13;;;16.70;;
23682;SDS011;24897;53.514;10.482;2022-10-15T13:10:15;18.27;;;16.77;;
23682;SDS011;24897;53.514;10.482;2022-10-15T13:13:11;17.50;;;16.00;;
23682;SDS011;24897;53.514;10.482;2022-10-15T13:15:59;17.05;;;15.60;;
23682;SDS011;24897;53.514;10.482;2022-10-15T13:18:49;16.90;;;15.60;;
23682;SDS011;24897;53.514;10.482;2022-10-15T13:21:54;16.73;;;15.30;;
23682;SDS011;24897;53.514;10.482;2022-10-15T13:24:44;16.92;;;15.63;;
23682;SDS011;24897;53.514;10.482;2022-10-15T13:27:35;17.63;;;16.13;;
23682;SDS011;24897;53.514;10.482;2022-10-15T13:30:20;17.60;;;16.20;;
23682;SDS011;24897;53.514;10.482;2022-10-15T13:33:05;18.50;;;16.90;;
23682;SDS011;24897;53.514;10.482;2022-10-15T13:35:49;18.70;;;17.17;;
23682;SDS011;24897;53.514;10.482;2022-10-15T13:38:34;18.77;;;17.17;;
23682;SDS011;24897;53.514;10.482;2022-10-15T13:41:28;19.47;;;17.87;;
23682;SDS011;24897;53.514;10.482;2022-10-15T13:44:22;19.97;;;18.37;;
23682;SDS011;24897;53.514;10.482;2022-10-15T13:47:18;20.53;;;18.70;;
23682;SDS011;24897;53.514;10.482;2022-10-15T13:50:17;19.70;;;18.00;;
23682;SDS011;24897;53.514;10.482;2022-10-15T13:55:53;22.17;;;20.13;;
23682;SDS011;24897;53.514;10.482;2022-10-15T13:58:39;22.47;;;20.30;;
23682;SDS011;24897;53.514;10.482;2022-10-15T14:01:24;23.23;;;21.23;;
23682;SDS011;24897;53.514;10.482;2022-10-15T14:04:17;22.40;;;20.37;;
23682;SDS011;24897;53.514;10.482;2022-10-15T14:07:17;24.80;;;22.43;;
23682;SDS011;24897;53.514;10.482;2022-10-15T14:10:04;23.90;;;21.70;;
23682;SDS011;24897;53.514;10.482;2022-10-15T14:12:51;24.87;;;22.57;;
23682;SDS011;24897;53.514;10.482;2022-10-15T14:18:27;24.90;;;22.73;;
23682;SDS011;24897;53.514;10.482;2022-10-15T14:21:19;24.30;;;22.13;;
23682;SDS011;24897;53.514;10.482;2022-10-15T14:24:12;25.17;;;22.90;;
23682;SDS011;24897;53.514;10.482;2022-10-15T14:27:06;25.17;;;22.77;;
23682;SDS011;24897;53.514;10.482;2022-10-15T14:29:58;23.73;;;21.57;;
23682;SDS011;24897;53.514;10.482;2022-10-15T14:32:44;24.17;;;22.07;;
23682;SDS011;24897;53.514;10.482;2022-10-15T14:35:32;25.10;;;22.80;;
23682;SDS011;24897;53.514;10.482;2022-10-15T14:38:18;25.27;;;23.03;;
23682;SDS011;24897;53.514;10.482;2022-10-15T14:41:04;25.57;;;23.17;;
23682;SDS011;24897;53.514;10.482;2022-10-15T14:46:49;26.43;;;23.73;;
23682;SDS011;24897;53.514;10.482;2022-10-15T14:49:41;26.47;;;24.00;;
23682;SDS011;24897;53.514;10.482;2022-10-15T14:52:25;25.80;;;23.47;;
23682;SDS011;24897;53.514;10.482;2022-10-15T14:58:07;27.20;;;24.53;;
23682;SDS011;24897;53.514;10.482;2022-10-15T15:00:53;27.40;;;24.80;;
23682;SDS011;24897;53.514;10.482;2022-10-15T15:03:47;26.23;;;23.93;;
23682;SDS011;24897;53.514;10.482;2022-10-15T15:06:33;26.37;;;23.97;;
23682;SDS011;24897;53.514;10.482;2022-10-15T15:09:18;27.73;;;25.13;;
23682;SDS011;24897;53.514;10.482;2022-10-15T15:12:02;27.67;;;25.27;;
23682;SDS011;24897;53.514;10.482;2022-10-15T15:14:47;27.83;;;25.33;;
23682;SDS011;24897;53.514;10.482;2022-10-15T15:17:31;29.80;;;27.10;;
23682;SDS011;24897;53.514;10.482;2022-10-15T15:20:17;28.70;;;26.07;;
23682;SDS011;24897;53.514;10.482;2022-10-15T15:23:08;29.77;;;26.97;;
23682;SDS011;24897;53.514;10.482;2022-10-15T15:25:56;28.87;;;26.23;;
23682;SDS011;24897;53.514;10.482;2022-10-15T15:28:41;29.37;;;26.77;;
23682;SDS011;24897;53.514;10.482;2022-10-15T15:31:25;30.57;;;27.77;;
23682;SDS011;24897;53.514;10.482;2022-10-15T15:34:11;30.80;;;27.73;;
23682;SDS011;24897;53.514;10.482;2022-10-15T15:36:55;31.50;;;28.37;;
23682;SDS011;24897;53.514;10.482;2022-10-15T15:39:40;30.80;;;27.73;;
23682;SDS011;24897;53.514;10.482;2022-10-15T15:42:25;31.20;;;28.30;;
23682;SDS011;24897;53.514;10.482;2022-10-15T15:45:14;31.23;;;28.33;;
23682;SDS011;24897;53.514;10.482;2022-10-15T15:48:07;32.60;;;29.50;;
23682;SDS011;24897;53.514;10.482;2022-10-15T15:50:52;32.80;;;29.70;;
23682;SDS011;24897;53.514;10.482;2022-10-15T15:53:36;31.67;;;28.87;;
23682;SDS011;24897;53.514;10.482;2022-10-15T15:56:21;35.13;;;32.03;;
23682;SDS011;24897;53.514;10.482;2022-10-15T15:59:05;40.77;;;36.97;;
23682;SDS011;24897;53.514;10.482;2022-10-15T16:01:49;40.73;;;36.93;;
23682;SDS011;24897;53.514;10.482;2022-10-15T16:04:34;41.50;;;37.80;;
23682;SDS011;24897;53.514;10.482;2022-10-15T16:07:18;39.97;;;36.27;;
23682;SDS011;24897;53.514;10.482;2022-10-15T16:10:03;40.83;;;37.23;;
23682;SDS011;24897;53.514;10.482;2022-10-15T16:12:51;39.53;;;35.93;;
23682;SDS011;24897;53.514;10.482;2022-10-15T16:15:35;39.30;;;35.60;;
23682;SDS011;24897;53.514;10.482;2022-10-15T16:18:19;41.50;;;37.70;;
23682;SDS011;24897;53.514;10.482;2022-10-15T16:21:03;39.63;;;36.03;;
23682;SDS011;24897;53.514;10.482;2022-10-15T16:23:48;43.60;;;39.60;;
23682;SDS011;24897;53.514;10.482;2022-10-15T16:26:33;39.83;;;36.13;;
23682;SDS011;24897;53.514;10.482;2022-10-15T16:29:17;38.23;;;34.67;;
23682;SDS011;24897;53.514;10.482;2022-10-15T16:32:02;38.87;;;35.37;;
23682;SDS011;24897;53.514;10.482;2022-10-15T16:34:47;39.90;;;36.20;;
23682;SDS011;24897;53.514;10.482;2022-10-15T16:37:31;39.73;;;36.23;;
23682;SDS011;24897;53.514;10.482;2022-10-15T16:40:16;38.87;;;35.37;;
23682;SDS011;24897;53.514;10.482;2022-10-15T16:43:01;41.80;;;38.10;;
23682;SDS011;24897;53.514;10.482;2022-10-15T16:45:52;40.40;;;36.60;;
23682;SDS011;24897;53.514;10.482;2022-10-15T16:48:38;41.10;;;37.40;;
23682;SDS011;24897;53.514;10.482;2022-10-15T16:51:23;43.00;;;39.13;;
23682;SDS011;24897;53.514;10.482;2022-10-15T16:54:09;41.80;;;37.87;;
23682;SDS011;24897;53.514;10.482;2022-10-15T16:56:58;42.73;;;38.73;;
23682;SDS011;24897;53.514;10.482;2022-10-15T16:59:42;41.37;;;37.40;;
23682;SDS011;24897;53.514;10.482;2022-10-15T17:02:26;41.07;;;36.93;;
23682;SDS011;24897;53.514;10.482;2022-10-15T17:05:10;43.53;;;39.03;;
23682;SDS011;24897;53.514;10.482;2022-10-15T17:07:54;43.03;;;38.73;;
23682;SDS011;24897;53.514;10.482;2022-10-15T17:10:41;44.30;;;39.70;;
23682;SDS011;24897;53.514;10.482;2022-10-15T17:13:27;42.50;;;38.10;;
23682;SDS011;24897;53.514;10.482;2022-10-15T17:16:13;48.93;;;44.07;;
23682;SDS011;24897;53.514;10.482;2022-10-15T17:18:57;44.77;;;40.37;;
23682;SDS011;24897;53.514;10.482;2022-10-15T17:21:42;46.63;;;41.93;;
23682;SDS011;24897;53.514;10.482;2022-10-15T17:24:26;48.33;;;43.03;;
23682;SDS011;24897;53.514;10.482;2022-10-15T17:27:10;49.83;;;44.60;;
23682;SDS011;24897;53.514;10.482;2022-10-15T17:29:55;46.87;;;41.90;;
23682;SDS011;24897;53.514;10.482;2022-10-15T17:32:39;44.77;;;40.07;;
23682;SDS011;24897;53.514;10.482;2022-10-15T17:35:23;44.60;;;39.67;;
23682;SDS011;24897;53.514;10.482;2022-10-15T17:38:08;45.63;;;40.73;;
23682;SDS011;24897;53.514;10.482;2022-10-15T17:40:52;46.93;;;41.83;;
23682;SDS011;24897;53.514;10.482;2022-10-15T17:43:37;43.47;;;38.87;;